createdAt,value
2018-07-08T00:01:13.996Z,87.80
2018-07-08T00:03:42.561Z,88.00
2018-07-08T00:06:11.147Z,88.10
2018-07-08T00:08:39.977Z,88.20
2018-07-08T00:11:08.552Z,88.70
2018-07-08T00:13:37.102Z,89.00
2018-07-08T00:16:05.728Z,88.90
2018-07-08T00:18:34.309Z,89.30
2018-07-08T00:21:02.959Z,89.50
2018-07-08T00:23:31.494Z,89.10
2018-07-08T00:26:00.084Z,90.10
2018-07-08T00:28:28.726Z,89.90
2018-07-08T00:30:57.365Z,90.10
2018-07-08T00:33:25.946Z,89.80
2018-07-08T00:35:54.506Z,90.00
2018-07-08T00:38:23.080Z,90.10
2018-07-08T00:40:51.631Z,90.00
2018-07-08T00:43:20.166Z,90.20
2018-07-08T00:45:48.758Z,90.10
2018-07-08T00:48:17.606Z,90.20
2018-07-08T00:50:46.166Z,90.20
2018-07-08T00:53:14.765Z,90.10
2018-07-08T00:55:43.359Z,90.10
2018-07-08T00:58:11.921Z,90.00
2018-07-08T01:00:40.498Z,90.10
2018-07-08T01:03:09.643Z,90.10
2018-07-08T01:05:38.244Z,90.00
2018-07-08T01:08:06.951Z,90.00
2018-07-08T01:10:35.518Z,90.00
2018-07-08T01:13:04.138Z,90.00
2018-07-08T01:15:32.755Z,90.00
2018-07-08T01:18:01.342Z,90.00
2018-07-08T01:20:29.906Z,90.10
2018-07-08T01:22:58.443Z,90.10
2018-07-08T01:25:38.210Z,90.30
2018-07-08T01:28:06.807Z,90.30
2018-07-08T01:30:35.330Z,90.40
2018-07-08T01:33:03.932Z,90.50
2018-07-08T01:35:32.518Z,90.50
2018-07-08T01:38:01.114Z,90.70
2018-07-08T01:40:29.674Z,90.80
2018-07-08T01:42:58.257Z,90.80
2018-07-08T01:45:26.827Z,90.80
2018-07-08T01:47:55.354Z,90.90
2018-07-08T01:50:24.011Z,90.80
2018-07-08T01:52:53.398Z,90.80
2018-07-08T01:55:22.011Z,90.80
2018-07-08T01:57:50.586Z,90.80
2018-07-08T02:00:19.137Z,90.90
2018-07-08T02:02:47.738Z,91.00
2018-07-08T02:05:16.297Z,91.10
2018-07-08T02:07:44.920Z,91.10
2018-07-08T02:10:13.441Z,91.10
2018-07-08T02:12:42.016Z,91.10
2018-07-08T02:15:10.565Z,91.10
2018-07-08T02:17:39.167Z,91.10
2018-07-08T02:20:08.162Z,91.00
2018-07-08T02:22:36.772Z,90.80
2018-07-08T02:25:05.402Z,90.60
2018-07-08T02:27:34.005Z,90.40
2018-07-08T02:30:02.613Z,90.40
2018-07-08T02:32:31.179Z,90.20
2018-07-08T02:34:59.832Z,90.10
2018-07-08T02:37:28.478Z,90.20
2018-07-08T02:39:57.121Z,90.10
2018-07-08T02:42:25.682Z,90.10
2018-07-08T02:44:54.279Z,89.90
2018-07-08T02:47:23.468Z,89.80
2018-07-08T02:49:52.436Z,89.60
2018-07-08T02:52:22.060Z,90.00
2018-07-08T02:54:50.660Z,90.10
2018-07-08T02:57:19.287Z,90.10
2018-07-08T02:59:47.920Z,90.20
2018-07-08T03:02:16.481Z,90.20
2018-07-08T03:04:45.000Z,90.20
2018-07-08T03:07:13.510Z,89.80
2018-07-08T03:09:42.122Z,89.20
2018-07-08T03:12:10.634Z,89.40
2018-07-08T03:14:39.248Z,90.00
2018-07-08T03:17:07.826Z,89.50
2018-07-08T03:19:36.676Z,89.40
2018-07-08T03:22:05.286Z,89.70
2018-07-08T03:24:33.805Z,89.20
2018-07-08T03:27:02.370Z,89.10
2018-07-08T03:29:30.949Z,89.30
2018-07-08T03:31:59.492Z,89.30
2018-07-08T03:34:28.082Z,89.80
2018-07-08T03:39:24.884Z,90.30
2018-07-08T03:41:53.767Z,90.60
2018-07-08T03:44:22.326Z,90.80
2018-07-08T03:46:50.954Z,90.80
2018-07-08T03:49:19.534Z,91.10
2018-07-08T03:51:48.102Z,90.80
2018-07-08T03:54:24.351Z,90.80
2018-07-08T03:56:52.969Z,90.70
2018-07-08T03:59:21.883Z,90.60
2018-07-08T04:01:50.413Z,90.60
2018-07-08T04:04:19.525Z,90.50
2018-07-08T04:06:48.644Z,90.60
2018-07-08T04:09:17.985Z,90.40
2018-07-08T04:11:47.036Z,90.30
2018-07-08T04:14:15.579Z,90.30
2018-07-08T04:16:44.153Z,90.40
2018-07-08T04:19:12.815Z,90.20
2018-07-08T04:21:41.449Z,90.10
2018-07-08T04:24:10.046Z,90.20
2018-07-08T04:26:38.626Z,90.20
2018-07-08T04:29:07.145Z,89.90
2018-07-08T04:31:35.711Z,90.00
2018-07-08T04:34:04.327Z,89.70
2018-07-08T04:36:32.894Z,89.70
2018-07-08T04:39:01.461Z,89.30
2018-07-08T04:41:30.043Z,88.80
2018-07-08T04:43:58.605Z,88.10
2018-07-08T04:46:27.139Z,87.30
2018-07-08T04:48:55.650Z,85.60
2018-07-08T04:51:24.213Z,84.90
2018-07-08T04:53:52.770Z,85.10
2018-07-08T04:56:21.358Z,84.40
2018-07-08T04:58:49.910Z,84.10
2018-07-08T05:01:18.481Z,82.90
2018-07-08T05:03:47.155Z,82.40
2018-07-08T05:06:15.734Z,82.00
2018-07-08T05:08:44.376Z,81.50
2018-07-08T05:11:12.917Z,78.70
2018-07-08T05:13:41.555Z,76.40
2018-07-08T05:16:10.092Z,74.30
2018-07-08T05:18:38.629Z,72.70
2018-07-08T05:21:07.504Z,70.00
2018-07-08T05:23:36.039Z,67.50
2018-07-08T05:26:04.583Z,64.10
2018-07-08T05:28:33.173Z,61.60
2018-07-08T05:31:01.692Z,61.00
2018-07-08T05:33:30.252Z,60.40
2018-07-08T05:35:59.051Z,59.60
2018-07-08T05:38:27.622Z,60.00
2018-07-08T05:40:56.202Z,59.10
2018-07-08T05:43:24.806Z,58.10
2018-07-08T05:45:53.430Z,57.90
2018-07-08T05:48:22.022Z,57.40
2018-07-08T05:50:50.543Z,57.70
2018-07-08T05:53:19.130Z,58.20
2018-07-08T05:55:47.686Z,60.00
2018-07-08T05:58:16.282Z,60.40
2018-07-08T06:00:44.826Z,60.60
2018-07-08T06:03:13.560Z,60.30
2018-07-08T06:05:42.096Z,57.80
2018-07-08T06:08:10.637Z,56.60
2018-07-08T06:10:39.168Z,56.60
2018-07-08T06:13:08.325Z,55.60
2018-07-08T06:15:37.025Z,55.40
2018-07-08T06:18:05.779Z,55.40
2018-07-08T06:20:34.322Z,56.40
2018-07-08T06:23:02.936Z,55.00
2018-07-08T06:25:31.709Z,56.00
2018-07-08T06:28:00.283Z,55.20
2018-07-08T06:30:28.998Z,55.90
2018-07-08T06:32:57.583Z,56.00
2018-07-08T06:35:26.226Z,55.30
2018-07-08T06:37:54.852Z,55.50
2018-07-08T06:42:51.610Z,54.80
2018-07-08T06:45:21.405Z,53.70
2018-07-08T06:47:50.254Z,55.90
2018-07-08T06:50:18.851Z,55.00
2018-07-08T06:52:47.465Z,54.50
2018-07-08T06:55:16.361Z,52.20
2018-07-08T06:57:45.275Z,52.90
2018-07-08T07:00:13.861Z,51.00
2018-07-08T07:02:43.527Z,50.10
2018-07-08T07:05:15.455Z,51.40
2018-07-08T07:07:44.098Z,50.60
2018-07-08T07:10:12.786Z,51.10
2018-07-08T07:12:41.355Z,50.50
2018-07-08T07:15:09.927Z,48.50
2018-07-08T07:17:38.726Z,48.80
2018-07-08T07:22:35.589Z,44.90
2018-07-08T07:25:04.170Z,44.10
2018-07-08T07:27:32.698Z,43.10
2018-07-08T07:30:01.399Z,43.60
2018-07-08T07:32:29.975Z,41.40
2018-07-08T07:34:58.509Z,40.00
2018-07-08T07:37:27.135Z,40.70
2018-07-08T07:39:55.661Z,38.70
2018-07-08T07:42:24.530Z,38.40
2018-07-08T07:44:53.553Z,39.50
2018-07-08T07:47:22.203Z,39.10
2018-07-08T07:49:50.806Z,38.90
2018-07-08T07:52:19.374Z,38.00
2018-07-08T07:54:48.576Z,37.80
2018-07-08T07:57:17.182Z,36.70
2018-07-08T07:59:46.077Z,35.20
2018-07-08T08:04:42.840Z,35.40
2018-07-08T08:09:40.960Z,36.00
2018-07-08T08:12:09.527Z,37.00
2018-07-08T08:14:38.102Z,33.70
2018-07-08T08:17:06.930Z,35.90
2018-07-08T08:19:35.538Z,37.20
2018-07-08T08:22:04.082Z,36.20
2018-07-08T08:24:32.629Z,36.10
2018-07-08T08:29:29.469Z,35.60
2018-07-08T08:31:58.050Z,35.00
2018-07-08T08:37:45.106Z,34.90
2018-07-08T08:40:14.574Z,34.10
2018-07-08T08:42:43.368Z,33.30
2018-07-08T08:45:13.142Z,34.60
2018-07-08T08:47:41.919Z,34.20
2018-07-08T08:50:11.072Z,33.40
2018-07-08T08:52:39.660Z,36.00
2018-07-08T08:55:09.214Z,34.70
2018-07-08T08:57:37.749Z,34.80
2018-07-08T09:00:11.367Z,38.30
2018-07-08T09:02:40.080Z,36.30
2018-07-08T09:05:08.859Z,36.00
2018-07-08T09:07:37.426Z,37.90
2018-07-08T09:10:06.210Z,36.70
2018-07-08T09:12:34.766Z,36.80
2018-07-08T09:15:03.356Z,35.40
2018-07-08T09:17:31.872Z,38.30
2018-07-08T09:20:00.436Z,38.10
2018-07-08T09:22:28.977Z,37.50
2018-07-08T09:24:57.583Z,35.50
2018-07-08T09:27:26.132Z,38.50
2018-07-08T09:29:54.703Z,37.90
2018-07-08T09:32:23.288Z,36.80
2018-07-08T09:34:51.852Z,37.10
2018-07-08T09:37:26.832Z,37.60
2018-07-08T09:39:55.349Z,36.90
2018-07-08T09:42:23.875Z,35.90
2018-07-08T09:44:52.445Z,36.10
2018-07-08T09:47:21.892Z,37.20
2018-07-08T09:49:50.479Z,36.50
2018-07-08T09:52:19.055Z,35.60
2018-07-08T09:54:47.587Z,35.10
2018-07-08T09:57:16.155Z,34.90
2018-07-08T09:59:44.696Z,38.10
2018-07-08T10:02:13.239Z,38.10
2018-07-08T10:04:41.907Z,34.60
2018-07-08T10:09:38.702Z,36.70
2018-07-08T10:12:07.213Z,34.10
2018-07-08T10:14:35.782Z,35.10
2018-07-08T10:17:04.305Z,35.10
2018-07-08T10:19:32.982Z,35.70
2018-07-08T10:22:01.489Z,37.60
2018-07-08T10:24:30.022Z,36.80
2018-07-08T10:27:15.461Z,35.70
2018-07-08T10:29:44.075Z,36.30
2018-07-08T10:32:12.598Z,34.50
2018-07-08T10:34:41.139Z,35.10
2018-07-08T10:37:09.641Z,34.90
2018-07-08T10:39:38.269Z,32.90
2018-07-08T10:42:06.838Z,33.30
2018-07-08T10:44:35.389Z,34.50
2018-07-08T10:47:03.954Z,35.30
2018-07-08T10:49:32.490Z,35.50
2018-07-08T10:52:01.052Z,36.30
2018-07-08T10:54:29.566Z,35.90
2018-07-08T10:56:58.154Z,37.80
2018-07-08T10:59:26.933Z,37.20
2018-07-08T11:01:56.338Z,36.80
2018-07-08T11:06:53.230Z,36.70
2018-07-08T11:09:21.820Z,34.90
2018-07-08T11:11:50.330Z,36.40
2018-07-08T11:14:18.874Z,35.20
2018-07-08T11:16:47.433Z,36.70
2018-07-08T11:19:15.951Z,34.90
2018-07-08T11:21:44.505Z,34.80
2018-07-08T11:24:13.028Z,35.90
2018-07-08T11:26:41.597Z,36.70
2018-07-08T11:29:10.243Z,37.40
2018-07-08T11:31:38.864Z,37.10
2018-07-08T11:34:07.417Z,34.00
2018-07-08T11:36:35.979Z,33.60
2018-07-08T11:39:05.198Z,34.60
2018-07-08T11:41:33.796Z,33.40
2018-07-08T11:46:30.618Z,35.70
2018-07-08T11:48:59.210Z,35.70
2018-07-08T11:51:27.799Z,35.80
2018-07-08T11:53:56.406Z,36.30
2018-07-08T11:56:24.975Z,33.90
2018-07-08T11:58:53.579Z,36.20
2018-07-08T12:01:22.114Z,34.10
2018-07-08T12:03:50.679Z,34.30
2018-07-08T12:06:19.288Z,34.70
2018-07-08T12:08:47.927Z,35.60
2018-07-08T12:11:16.470Z,35.30
2018-07-08T12:13:45.022Z,36.40
2018-07-08T12:16:13.611Z,35.20
2018-07-08T12:18:42.174Z,35.10
2018-07-08T12:21:10.723Z,35.10
2018-07-08T12:23:40.479Z,34.20
2018-07-08T12:26:09.029Z,33.50
2018-07-08T12:28:38.547Z,33.80
2018-07-08T12:31:07.541Z,34.00
2018-07-08T12:33:36.226Z,34.10
2018-07-08T12:36:06.271Z,34.80
2018-07-08T12:38:34.807Z,34.30
2018-07-08T12:41:03.366Z,33.90
2018-07-08T12:43:31.945Z,35.50
2018-07-08T12:46:00.530Z,35.20
2018-07-08T12:48:29.395Z,35.10
2018-07-08T12:50:57.947Z,33.40
2018-07-08T12:53:26.570Z,34.30
2018-07-08T12:55:55.154Z,33.30
2018-07-08T12:58:23.713Z,33.60
2018-07-08T13:00:52.281Z,33.30
2018-07-08T13:03:22.451Z,34.80
2018-07-08T13:05:51.008Z,33.00
2018-07-08T13:08:19.573Z,33.50
2018-07-08T13:10:48.184Z,32.70
2018-07-08T13:13:16.738Z,34.60
2018-07-08T13:15:45.324Z,33.50
2018-07-08T13:18:13.895Z,32.80
2018-07-08T13:20:42.463Z,32.00
2018-07-08T13:25:39.305Z,32.90
2018-07-08T13:28:07.855Z,30.60
2018-07-08T13:30:36.446Z,30.80
2018-07-08T13:33:05.087Z,32.70
2018-07-08T13:35:33.623Z,30.30
2018-07-08T13:38:02.277Z,31.70
2018-07-08T13:40:30.866Z,32.10
2018-07-08T13:42:59.438Z,32.50
2018-07-08T13:45:28.584Z,33.10
2018-07-08T13:47:57.368Z,34.70
2018-07-08T13:50:25.895Z,34.50
2018-07-08T13:52:54.469Z,34.70
2018-07-08T13:55:23.036Z,32.00
2018-07-08T13:57:51.561Z,31.00
2018-07-08T14:00:20.122Z,32.80
2018-07-08T14:02:48.773Z,33.30
2018-07-08T14:05:17.315Z,32.50
2018-07-08T14:07:45.974Z,32.70
2018-07-08T14:10:15.815Z,32.80
2018-07-08T14:12:44.469Z,31.80
2018-07-08T14:15:12.978Z,30.80
2018-07-08T14:17:41.510Z,30.70
2018-07-08T14:20:10.106Z,32.50
2018-07-08T14:22:39.719Z,32.70
2018-07-08T14:25:08.342Z,32.80
2018-07-08T14:27:37.031Z,31.70
2018-07-08T14:30:05.905Z,31.60
2018-07-08T14:32:34.490Z,33.30
2018-07-08T14:35:03.113Z,31.60
2018-07-08T14:37:31.665Z,31.40
2018-07-08T14:40:00.361Z,33.10
2018-07-08T14:42:29.045Z,31.00
2018-07-08T14:44:57.617Z,32.30
2018-07-08T14:47:26.164Z,33.30
2018-07-08T14:49:55.085Z,33.10
2018-07-08T14:52:23.696Z,31.60
2018-07-08T14:54:52.279Z,31.50
2018-07-08T14:57:20.834Z,33.10
2018-07-08T14:59:49.377Z,31.30
2018-07-08T15:02:17.941Z,32.90
2018-07-08T15:04:46.570Z,31.90
2018-07-08T15:07:15.116Z,32.60
2018-07-08T15:09:43.736Z,32.60
2018-07-08T15:12:12.289Z,32.60
2018-07-08T15:14:40.899Z,32.60
2018-07-08T15:17:09.553Z,33.30
2018-07-08T15:19:39.115Z,32.20
2018-07-08T15:22:07.817Z,32.20
2018-07-08T15:24:36.508Z,33.50
2018-07-08T15:27:05.442Z,32.60
2018-07-08T15:29:34.015Z,32.90
2018-07-08T15:32:02.664Z,32.50
2018-07-08T15:34:31.388Z,33.80
2018-07-08T15:36:59.957Z,31.80
2018-07-08T15:39:29.750Z,32.60
2018-07-08T15:41:58.327Z,32.60
2018-07-08T15:44:32.773Z,32.50
2018-07-08T15:47:01.387Z,32.00
2018-07-08T15:49:30.061Z,31.90
2018-07-08T15:51:58.584Z,31.80
2018-07-08T15:54:27.215Z,32.00
2018-07-08T15:56:56.050Z,33.00
2018-07-08T15:59:24.730Z,33.00
2018-07-08T16:01:53.319Z,33.00
2018-07-08T16:04:21.985Z,32.60
2018-07-08T16:06:50.608Z,31.90
2018-07-08T16:09:19.119Z,31.50
2018-07-08T16:11:47.743Z,31.90
2018-07-08T16:14:16.461Z,32.70
2018-07-08T16:16:45.017Z,33.50
2018-07-08T16:19:13.638Z,32.40
2018-07-08T16:21:42.165Z,32.20
2018-07-08T16:24:10.754Z,32.00
2018-07-08T16:26:39.287Z,31.50
2018-07-08T16:29:07.827Z,31.30
2018-07-08T16:31:36.453Z,32.80
2018-07-08T16:34:04.998Z,31.90
2018-07-08T16:36:33.587Z,32.10
2018-07-08T16:39:02.389Z,32.40
2018-07-08T16:41:31.029Z,32.20
2018-07-08T16:43:59.610Z,32.20
2018-07-08T16:46:28.119Z,33.00
2018-07-08T16:48:56.901Z,32.90
2018-07-08T16:51:25.429Z,32.80
2018-07-08T16:53:53.951Z,33.30
2018-07-08T16:56:22.565Z,32.10
2018-07-08T16:58:51.246Z,32.30
2018-07-08T17:01:19.788Z,31.70
2018-07-08T17:03:48.325Z,31.20
2018-07-08T17:06:16.889Z,31.80
2018-07-08T17:08:45.531Z,31.60
2018-07-08T17:11:14.131Z,32.50
2018-07-08T17:13:42.722Z,31.50
2018-07-08T17:18:39.491Z,32.10
2018-07-08T17:21:08.054Z,31.70
2018-07-08T17:23:36.641Z,31.60
2018-07-08T17:26:05.308Z,31.40
2018-07-08T17:28:33.855Z,31.30
2018-07-08T17:31:02.626Z,31.40
2018-07-08T17:33:31.336Z,30.60
2018-07-08T17:35:59.871Z,30.90
2018-07-08T17:38:28.880Z,30.60
2018-07-08T17:40:57.548Z,30.80
2018-07-08T17:43:26.185Z,31.00
2018-07-08T17:45:54.758Z,31.60
2018-07-08T17:48:23.551Z,31.90
2018-07-08T17:50:52.141Z,31.30
2018-07-08T17:53:20.823Z,31.20
2018-07-08T17:55:50.030Z,30.50
2018-07-08T17:58:18.903Z,31.10
2018-07-08T18:00:47.471Z,30.70
2018-07-08T18:03:16.234Z,31.40
2018-07-08T18:05:44.873Z,31.00
2018-07-08T18:08:13.616Z,29.30
2018-07-08T18:10:42.172Z,29.00
2018-07-08T18:13:10.782Z,29.00
2018-07-08T18:15:40.070Z,29.10
2018-07-08T18:18:08.682Z,29.40
2018-07-08T18:20:37.771Z,29.30
2018-07-08T18:23:06.348Z,29.60
2018-07-08T18:25:34.918Z,29.20
2018-07-08T18:28:03.486Z,29.50
2018-07-08T18:30:33.244Z,29.80
2018-07-08T18:33:01.959Z,29.90
2018-07-08T18:35:30.607Z,30.80
2018-07-08T18:37:59.157Z,31.40
2018-07-08T18:40:27.802Z,30.20
2018-07-08T18:42:56.386Z,30.50
2018-07-08T18:45:24.937Z,31.10
2018-07-08T18:47:53.758Z,30.90
2018-07-08T18:50:23.038Z,30.80
2018-07-08T18:55:20.127Z,31.20
2018-07-08T18:57:48.698Z,30.70
2018-07-08T19:00:17.267Z,31.20
2018-07-08T19:02:45.802Z,31.70
2018-07-08T19:05:14.560Z,39.90
2018-07-08T19:07:43.131Z,43.90
2018-07-08T19:10:12.010Z,46.20
2018-07-08T19:12:40.914Z,47.80
2018-07-08T19:15:09.487Z,48.30
2018-07-08T19:17:38.109Z,50.40
2018-07-08T19:20:06.766Z,50.90
2018-07-08T19:22:35.330Z,49.90
2018-07-08T19:25:03.904Z,48.90
2018-07-08T19:27:32.531Z,48.70
2018-07-08T19:30:01.427Z,47.50
2018-07-08T19:32:30.021Z,48.00
2018-07-08T19:34:59.213Z,48.70
2018-07-08T19:37:28.038Z,48.60
2018-07-08T19:39:56.554Z,49.30
2018-07-08T19:42:25.058Z,50.60
2018-07-08T19:44:55.025Z,50.50
2018-07-08T19:47:23.761Z,50.80
2018-07-08T19:49:52.306Z,50.80
2018-07-08T19:52:20.858Z,49.70
2018-07-08T19:54:51.419Z,49.40
2018-07-08T19:57:20.961Z,50.40
2018-07-08T19:59:49.541Z,50.40
2018-07-08T20:02:18.105Z,50.50
2018-07-08T20:04:47.490Z,50.30
2018-07-08T20:09:46.231Z,49.10
2018-07-08T20:12:17.187Z,50.30
2018-07-08T20:14:45.895Z,49.90
2018-07-08T20:17:14.576Z,49.50
2018-07-08T20:19:43.436Z,50.10
2018-07-08T20:22:12.179Z,50.50
2018-07-08T20:24:40.795Z,50.40
2018-07-08T20:27:09.362Z,50.90
2018-07-08T20:32:06.179Z,51.60
2018-07-08T20:34:34.741Z,51.80
2018-07-08T20:37:03.283Z,52.70
2018-07-08T20:39:31.926Z,53.50
2018-07-08T20:42:00.471Z,54.00
2018-07-08T20:44:29.103Z,54.10
2018-07-08T20:46:57.650Z,53.60
2018-07-08T20:49:26.644Z,53.50
2018-07-08T20:51:56.141Z,53.20
2018-07-08T20:54:24.702Z,53.70
2018-07-08T20:56:53.283Z,54.30
2018-07-08T20:59:36.729Z,54.80
2018-07-08T21:02:05.296Z,55.90
2018-07-08T21:04:33.854Z,57.20
2018-07-08T21:07:02.414Z,57.10
2018-07-08T21:09:31.803Z,56.10
2018-07-08T21:12:00.488Z,55.90
2018-07-08T21:14:29.035Z,55.70
2018-07-08T21:16:57.555Z,55.70
2018-07-08T21:19:26.874Z,54.80
2018-07-08T21:21:55.545Z,55.30
2018-07-08T21:24:24.917Z,55.50
2018-07-08T21:26:53.494Z,56.50
2018-07-08T21:31:50.403Z,56.40
2018-07-08T21:34:18.898Z,56.70
2018-07-08T21:36:47.708Z,56.90
2018-07-08T21:39:16.254Z,56.90
2018-07-08T21:41:44.858Z,57.20
2018-07-08T21:44:13.434Z,57.50
2018-07-08T21:46:41.952Z,56.40
2018-07-08T21:49:10.520Z,56.90
2018-07-08T21:51:39.100Z,55.60
2018-07-08T21:54:07.693Z,56.10
2018-07-08T21:56:36.294Z,56.80
2018-07-08T21:59:04.869Z,56.30
2018-07-08T22:01:50.228Z,56.50
2018-07-08T22:04:33.465Z,56.60
2018-07-08T22:07:07.454Z,57.50
2018-07-08T22:09:36.190Z,56.40
2018-07-08T22:12:04.749Z,55.90
2018-07-08T22:14:33.310Z,56.10
2018-07-08T22:17:01.884Z,57.30
2018-07-08T22:19:31.567Z,56.80
2018-07-08T22:22:00.206Z,58.00
2018-07-08T22:24:28.800Z,56.60
2018-07-08T22:26:57.419Z,56.80
2018-07-08T22:29:25.971Z,56.70
2018-07-08T22:34:23.067Z,56.80
2018-07-08T22:36:51.616Z,56.90
2018-07-08T22:39:20.509Z,57.20
2018-07-08T22:41:49.062Z,57.20
2018-07-08T22:44:17.673Z,57.20
2018-07-08T22:46:46.182Z,57.30
2018-07-08T22:49:14.879Z,57.20
2018-07-08T22:51:43.424Z,57.60
2018-07-08T22:54:11.982Z,58.10
2018-07-08T22:56:40.598Z,59.40
2018-07-08T23:01:48.241Z,58.80
2018-07-08T23:04:16.800Z,58.70
2018-07-08T23:09:13.515Z,59.70
2018-07-08T23:11:42.005Z,59.10
2018-07-08T23:14:10.649Z,59.20
2018-07-08T23:16:39.227Z,58.50
2018-07-08T23:19:08.127Z,59.10
2018-07-08T23:21:36.743Z,59.30
2018-07-08T23:24:05.355Z,59.20
2018-07-08T23:26:33.911Z,59.90
2018-07-08T23:29:02.476Z,60.80
2018-07-08T23:31:30.983Z,59.20
2018-07-08T23:33:59.582Z,61.80
2018-07-08T23:36:28.753Z,61.40
2018-07-08T23:38:57.964Z,62.20
2018-07-08T23:41:26.511Z,61.00
2018-07-08T23:43:55.186Z,60.40
2018-07-08T23:46:23.839Z,60.30
2018-07-08T23:48:52.557Z,61.40
2018-07-08T23:51:21.109Z,61.20
2018-07-08T23:53:49.670Z,62.40
2018-07-08T23:56:18.189Z,63.00
2018-07-08T23:58:46.788Z,63.70
